Ammansville, Texas
Current Conditions -  °F | °C
As of 2:10 AM on Sunday 21 Dec 2014 (Local Time) from K3T5 Reporting Station
Overcast Overcast  
Wind Chill: 52°   Ceiling: 1500
Heat Index: 52°   Visibility: 10mi
Dew Point: 49°   Wind: 0mph
Humidity: 89%   Direction: NA
Pressure: 30.14"   Gusts: NA
Location:  29.8569°N, 96.9311°W
Report Text: K3T5 210810Z AUTO 00000KT 10SM OVC015 11/10 A3014 RMK AO2 T01120095
Loading
Personal Weather Stations






























Interactive Weather Map New forecast layout! Learn more

10-Day Weather Forecast

Advertisements
Track Severe Weather on mobile